createdAt,value
2019-05-14T00:01:46.450Z,102061.16
2019-05-14T00:04:51.464Z,102060.72
2019-05-14T00:07:56.497Z,102056.83
2019-05-14T00:11:01.819Z,102051.98
2019-05-14T00:14:06.622Z,102045.84
2019-05-14T00:17:11.577Z,102041.92
2019-05-14T00:20:17.545Z,102041.43
2019-05-14T00:23:22.298Z,102037.06
2019-05-14T00:26:27.047Z,102037.14
2019-05-14T00:29:32.241Z,102039.02
2019-05-14T00:32:36.969Z,102039.52
2019-05-14T00:35:42.194Z,102030.80
2019-05-14T00:38:47.225Z,102023.80
2019-05-14T00:41:52.374Z,102029.53
2019-05-14T00:44:58.011Z,102027.84
2019-05-14T00:48:03.229Z,102022.61
2019-05-14T00:51:07.988Z,102027.84
2019-05-14T00:54:13.059Z,102031.75
2019-05-14T00:57:17.874Z,102024.95
2019-05-14T01:00:22.836Z,102027.70
2019-05-14T01:03:28.078Z,102029.97
2019-05-14T01:06:33.245Z,102024.30
2019-05-14T01:09:38.067Z,102026.95
2019-05-14T01:12:43.217Z,102020.84
2019-05-14T01:15:48.000Z,102020.42
2019-05-14T01:18:53.021Z,102023.49
2019-05-14T01:21:58.075Z,102022.58
2019-05-14T01:25:02.861Z,102026.56
2019-05-14T01:28:08.276Z,102019.09
2019-05-14T01:31:14.761Z,102019.09
2019-05-14T01:34:21.634Z,102019.95
2019-05-14T01:37:26.567Z,102022.16
2019-05-14T01:40:31.825Z,102019.96
2019-05-14T01:43:36.641Z,102017.72
2019-05-14T01:46:41.989Z,102019.89
2019-05-14T01:49:47.264Z,102024.28
2019-05-14T01:52:52.205Z,102022.06
2019-05-14T01:55:56.914Z,102019.84
2019-05-14T01:59:01.910Z,102015.94
2019-05-14T02:02:06.826Z,102013.77
2019-05-14T02:05:12.808Z,102012.95
2019-05-14T02:08:17.993Z,102009.43
2019-05-14T02:11:23.071Z,102007.24
2019-05-14T02:14:31.302Z,102001.14
2019-05-14T02:17:36.372Z,102008.56
2019-05-14T02:20:41.567Z,102012.08
2019-05-14T02:23:47.623Z,102012.91
2019-05-14T02:26:52.663Z,102010.66
2019-05-14T02:30:01.476Z,102008.03
2019-05-14T02:33:05.456Z,102008.45
2019-05-14T02:36:10.628Z,102004.55
2019-05-14T02:39:19.428Z,102002.78
2019-05-14T02:42:23.296Z,102000.14
2019-05-14T02:45:30.465Z,102000.95
2019-05-14T02:48:34.819Z,101997.01
2019-05-14T02:51:39.521Z,102000.55
2019-05-14T02:54:44.276Z,102001.41
2019-05-14T02:57:50.153Z,101996.14
2019-05-14T03:00:55.225Z,101989.58
2019-05-14T03:04:01.136Z,101987.30
2019-05-14T03:07:05.866Z,101988.48
2019-05-14T03:10:10.956Z,101987.19
2019-05-14T03:13:16.199Z,101990.55
2019-05-14T03:16:30.967Z,101990.50
2019-05-14T03:19:29.946Z,101992.13
2019-05-14T03:22:46.470Z,101992.10
2019-05-14T03:25:42.015Z,101996.08
2019-05-14T03:28:49.735Z,101996.54
2019-05-14T03:31:53.680Z,101997.39
2019-05-14T03:35:03.719Z,101995.59
2019-05-14T03:38:09.224Z,101985.23
2019-05-14T03:41:14.309Z,101992.19
2019-05-14T03:44:20.064Z,101985.26
2019-05-14T03:47:25.429Z,101988.78
2019-05-14T03:50:30.615Z,101986.20
2019-05-14T03:53:52.310Z,101978.72
2019-05-14T03:56:42.516Z,101973.84
2019-05-14T03:59:49.916Z,101975.56
2019-05-14T04:02:53.910Z,101972.53
2019-05-14T04:06:00.293Z,101966.02
2019-05-14T04:09:09.691Z,101964.32
2019-05-14T04:12:14.961Z,101959.61
2019-05-14T04:15:23.650Z,101958.72
2019-05-14T04:18:30.921Z,101957.88
2019-05-14T04:21:40.066Z,101958.68
2019-05-14T04:24:49.376Z,101952.58
2019-05-14T04:27:54.201Z,101948.67
2019-05-14T04:30:59.845Z,101947.95
2019-05-14T04:34:05.082Z,101944.48
2019-05-14T04:37:12.557Z,101947.08
2019-05-14T04:40:19.070Z,101948.02
2019-05-14T04:43:24.703Z,101943.16
2019-05-14T04:46:30.437Z,101947.56
2019-05-14T04:49:35.648Z,101945.81
2019-05-14T04:52:40.887Z,101947.52
2019-05-14T04:55:49.227Z,101955.45
2019-05-14T04:58:52.554Z,101948.94
2019-05-14T05:01:59.941Z,101954.63
2019-05-14T05:05:04.249Z,101952.45
2019-05-14T05:08:09.197Z,101948.52
2019-05-14T05:11:17.116Z,101955.57
2019-05-14T05:14:23.724Z,101960.83
2019-05-14T05:17:42.825Z,101965.20
2019-05-14T05:20:35.445Z,101963.90
2019-05-14T05:23:40.197Z,101970.89
2019-05-14T05:26:44.964Z,101956.42
2019-05-14T05:29:49.957Z,101956.39
2019-05-14T05:32:54.740Z,101963.81
2019-05-14T05:35:59.750Z,101956.77
2019-05-14T05:39:08.563Z,101959.41
2019-05-14T05:42:13.566Z,101956.84
2019-05-14T05:45:19.013Z,101962.95
2019-05-14T05:48:24.102Z,101954.64
2019-05-14T05:51:29.041Z,101961.13
2019-05-14T05:54:34.305Z,101961.51
2019-05-14T05:57:39.592Z,101957.08
2019-05-14T06:00:44.536Z,101945.61
2019-05-14T06:03:49.559Z,101947.68
2019-05-14T06:06:54.806Z,101949.33
2019-05-14T06:09:59.895Z,101951.56
2019-05-14T06:13:05.122Z,101945.81
2019-05-14T06:16:09.878Z,101947.09
2019-05-14T06:19:14.740Z,101958.95
2019-05-14T06:22:19.499Z,101946.91
2019-05-14T06:25:24.283Z,101947.69
2019-05-14T06:28:33.316Z,101939.08
2019-05-14T06:31:38.675Z,101931.31
2019-05-14T06:34:43.363Z,101928.02
2019-05-14T06:37:49.008Z,101936.09
2019-05-14T06:40:54.173Z,101928.09
2019-05-14T06:43:59.268Z,101929.28
2019-05-14T06:47:04.318Z,101931.81
2019-05-14T06:50:09.453Z,101931.03
2019-05-14T06:53:14.256Z,101929.99
2019-05-14T06:56:21.773Z,101925.55
2019-05-14T06:59:28.578Z,101920.94
2019-05-14T07:02:32.937Z,101921.23
2019-05-14T07:05:38.985Z,101926.14
2019-05-14T07:08:44.378Z,101920.79
2019-05-14T07:11:49.591Z,101915.83
2019-05-14T07:14:54.682Z,101917.78
2019-05-14T07:17:59.505Z,101917.15
2019-05-14T07:21:08.054Z,101919.02
2019-05-14T07:24:12.119Z,101918.74
2019-05-14T07:27:19.106Z,101913.59
2019-05-14T07:30:23.688Z,101917.31
2019-05-14T07:33:29.410Z,101915.63
2019-05-14T07:36:34.505Z,101917.13
2019-05-14T07:39:39.321Z,101918.56
2019-05-14T07:42:44.465Z,101917.73
2019-05-14T07:45:50.212Z,101915.59
2019-05-14T07:49:05.491Z,101906.39
2019-05-14T07:52:01.875Z,101902.81
2019-05-14T07:55:09.103Z,101902.14
2019-05-14T07:58:14.671Z,101900.19
2019-05-14T08:01:19.492Z,101895.03
2019-05-14T08:04:24.346Z,101890.44
2019-05-14T08:07:29.484Z,101886.50
2019-05-14T08:10:34.353Z,101884.37
2019-05-14T08:13:40.987Z,101872.19
2019-05-14T08:16:45.598Z,101868.67
2019-05-14T08:19:50.362Z,101868.77
2019-05-14T08:22:55.441Z,101867.84
2019-05-14T08:26:03.786Z,101863.07
2019-05-14T08:29:08.721Z,101857.69
2019-05-14T08:32:13.650Z,101847.98
2019-05-14T08:35:18.635Z,101849.64
2019-05-14T08:38:24.509Z,101845.48
2019-05-14T08:41:29.916Z,101845.52
2019-05-14T08:44:35.046Z,101840.99
2019-05-14T08:47:39.794Z,101838.35
2019-05-14T08:50:45.057Z,101841.77
2019-05-14T08:53:50.716Z,101843.77
2019-05-14T08:56:58.217Z,101830.13
2019-05-14T09:00:02.773Z,101830.15
2019-05-14T09:03:08.467Z,101832.47
2019-05-14T09:06:13.431Z,101828.27
2019-05-14T09:09:22.113Z,101824.98
2019-05-14T09:12:28.020Z,101817.83
2019-05-14T09:15:32.700Z,101806.88
2019-05-14T09:18:38.685Z,101815.79
2019-05-14T09:21:43.685Z,101810.30
2019-05-14T09:24:49.197Z,101813.95
2019-05-14T09:27:54.393Z,101813.88
2019-05-14T09:30:59.839Z,101804.12
2019-05-14T09:34:05.697Z,101810.27
2019-05-14T09:37:11.456Z,101810.11
2019-05-14T09:40:16.420Z,101804.42
2019-05-14T09:43:22.282Z,101806.37
2019-05-14T09:46:28.906Z,101807.81
2019-05-14T09:49:33.993Z,101802.29
2019-05-14T09:52:39.453Z,101811.09
2019-05-14T09:55:44.279Z,101802.44
2019-05-14T09:58:49.727Z,101800.74
2019-05-14T10:01:54.855Z,101803.42
2019-05-14T10:04:59.950Z,101810.42
2019-05-14T10:08:04.826Z,101804.56
2019-05-14T10:11:09.788Z,101802.84
2019-05-14T10:14:14.559Z,101802.14
2019-05-14T10:17:19.592Z,101800.47
2019-05-14T10:20:39.503Z,101798.16
2019-05-14T10:23:32.245Z,101798.55
2019-05-14T10:26:39.334Z,101775.83
2019-05-14T10:29:43.992Z,101775.83
2019-05-14T10:32:49.362Z,101777.27
2019-05-14T10:35:54.273Z,101772.85
2019-05-14T10:38:59.047Z,101782.79
2019-05-14T10:42:04.145Z,101777.15
2019-05-14T10:45:12.930Z,101770.73
2019-05-14T10:48:18.452Z,101765.56
2019-05-14T10:51:22.958Z,101751.41
2019-05-14T10:54:29.234Z,101759.77
2019-05-14T10:57:34.261Z,101758.22
2019-05-14T11:00:41.964Z,101741.06
2019-05-14T11:03:48.257Z,101749.80
2019-05-14T11:06:52.367Z,101744.63
2019-05-14T11:09:57.492Z,101736.88
2019-05-14T11:13:02.254Z,101727.22
2019-05-14T11:16:08.575Z,101740.19
2019-05-14T11:19:13.843Z,101735.89
2019-05-14T11:22:19.004Z,101735.89
2019-05-14T11:25:23.991Z,101734.61
2019-05-14T11:28:29.195Z,101734.61
2019-05-14T11:31:34.531Z,101727.45
2019-05-14T11:34:39.383Z,101725.42
2019-05-14T11:37:44.181Z,101728.51
2019-05-14T11:40:49.713Z,101730.44
2019-05-14T11:43:55.115Z,101717.55
2019-05-14T11:47:02.538Z,101704.17
2019-05-14T11:50:09.478Z,101704.17
2019-05-14T11:53:13.968Z,101705.30
2019-05-14T11:56:19.518Z,101692.06
2019-05-14T11:59:24.425Z,101694.54
2019-05-14T12:02:29.524Z,101677.03
2019-05-14T12:05:34.258Z,101683.20
2019-05-14T12:08:41.777Z,101674.84
2019-05-14T12:11:46.479Z,101690.36
2019-05-14T12:14:51.249Z,101689.38
2019-05-14T12:17:59.290Z,101689.38
2019-05-14T12:21:02.926Z,101674.76
2019-05-14T12:24:13.429Z,101674.76
2019-05-14T12:27:14.882Z,101680.48
2019-05-14T12:30:21.135Z,101670.45
2019-05-14T12:33:29.489Z,101670.45
2019-05-14T12:36:33.485Z,101661.30
2019-05-14T12:39:38.857Z,101674.08
2019-05-14T12:42:43.663Z,101658.15
2019-05-14T12:45:48.471Z,101659.96
2019-05-14T12:48:53.259Z,101662.09
2019-05-14T12:51:59.034Z,101641.55
2019-05-14T12:55:04.926Z,101637.02
2019-05-14T12:58:09.692Z,101642.25
2019-05-14T13:01:14.687Z,101638.95
2019-05-14T13:04:20.217Z,101634.47
2019-05-14T13:07:25.696Z,101633.42
2019-05-14T13:10:30.520Z,101628.86
2019-05-14T13:13:35.251Z,101627.09
2019-05-14T13:16:40.917Z,101617.15
2019-05-14T13:19:45.650Z,101613.42
2019-05-14T13:22:50.757Z,101618.82
2019-05-14T13:25:58.423Z,101613.06
2019-05-14T13:29:02.568Z,101612.50
2019-05-14T13:32:12.023Z,101607.06
2019-05-14T13:35:14.509Z,101580.77
2019-05-14T13:38:20.501Z,101580.77
2019-05-14T13:41:25.245Z,101589.96
2019-05-14T13:44:30.313Z,101591.73
2019-05-14T13:47:35.387Z,101578.00
2019-05-14T13:50:40.573Z,101586.25
2019-05-14T13:53:45.668Z,101574.98
2019-05-14T13:56:50.749Z,101576.30
2019-05-14T13:59:55.551Z,101575.13
2019-05-14T14:03:00.372Z,101576.78
2019-05-14T14:06:05.343Z,101573.11
2019-05-14T14:09:12.376Z,101568.77
2019-05-14T14:12:16.801Z,101565.11
2019-05-14T14:15:22.027Z,101566.73
2019-05-14T14:18:29.200Z,101562.02
2019-05-14T14:21:33.788Z,101558.31
2019-05-14T14:24:38.989Z,101556.88
2019-05-14T14:27:43.832Z,101566.22
2019-05-14T14:30:49.315Z,101559.88
2019-05-14T14:33:54.188Z,101561.17
2019-05-14T14:36:59.443Z,101558.47
2019-05-14T14:40:04.891Z,101556.52
2019-05-14T14:43:10.285Z,101550.22
2019-05-14T14:46:15.442Z,101550.38
2019-05-14T14:49:20.231Z,101557.78
2019-05-14T14:52:29.151Z,101539.41
2019-05-14T14:55:33.255Z,101543.21
2019-05-14T14:58:39.390Z,101541.00
2019-05-14T15:01:44.480Z,101536.55
2019-05-14T15:04:50.079Z,101537.31
2019-05-14T15:07:55.994Z,101533.09
2019-05-14T15:11:00.744Z,101534.41
2019-05-14T15:14:08.300Z,101527.63
2019-05-14T15:17:12.204Z,101523.23
2019-05-14T15:20:19.575Z,101525.58
2019-05-14T15:23:24.829Z,101526.20
2019-05-14T15:26:29.576Z,101526.28
2019-05-14T15:29:35.264Z,101524.28
2019-05-14T15:32:40.165Z,101526.11
2019-05-14T15:35:45.007Z,101514.53
2019-05-14T15:38:50.107Z,101520.71
2019-05-14T15:41:54.900Z,101525.42
2019-05-14T15:45:00.158Z,101515.03
2019-05-14T15:48:05.473Z,101515.14
2019-05-14T15:51:14.798Z,101515.14
2019-05-14T15:54:36.171Z,101526.84
2019-05-14T15:57:24.258Z,101511.69
2019-05-14T16:00:29.441Z,101508.07
2019-05-14T16:03:34.318Z,101504.17
2019-05-14T16:06:39.145Z,101495.25
2019-05-14T16:09:44.223Z,101495.25
2019-05-14T16:12:49.810Z,101493.77
2019-05-14T16:15:55.033Z,101504.79
2019-05-14T16:18:59.866Z,101504.79
2019-05-14T16:22:04.662Z,101500.58
2019-05-14T16:25:10.074Z,101502.16
2019-05-14T16:28:15.244Z,101493.52
2019-05-14T16:31:20.127Z,101487.91
2019-05-14T16:34:26.000Z,101487.91
2019-05-14T16:37:31.108Z,101481.02
2019-05-14T16:40:39.260Z,101481.02
2019-05-14T16:43:43.145Z,101483.58
2019-05-14T16:46:48.178Z,101490.59
2019-05-14T16:49:53.037Z,101492.27
2019-05-14T16:52:58.977Z,101495.88
2019-05-14T16:56:04.225Z,101495.88
2019-05-14T16:59:09.164Z,101492.48
2019-05-14T17:02:13.974Z,101489.42
2019-05-14T17:05:19.075Z,101491.73
2019-05-14T17:08:24.051Z,101495.73
2019-05-14T17:11:28.929Z,101496.48
2019-05-14T17:14:34.064Z,101493.05
2019-05-14T17:17:38.909Z,101489.71
2019-05-14T17:20:43.915Z,101488.56
2019-05-14T17:23:49.096Z,101486.12
2019-05-14T17:26:53.913Z,101491.67
2019-05-14T17:29:59.022Z,101487.00
2019-05-14T17:33:03.951Z,101492.45
2019-05-14T17:36:09.535Z,101492.18
2019-05-14T17:39:14.940Z,101499.99
2019-05-14T17:42:20.014Z,101492.08
2019-05-14T17:45:24.901Z,101493.69
2019-05-14T17:48:29.682Z,101497.84
2019-05-14T17:51:34.858Z,101494.68
2019-05-14T17:54:41.960Z,101492.17
2019-05-14T17:57:50.305Z,101493.23
2019-05-14T18:00:54.997Z,101484.55
2019-05-14T18:04:01.391Z,101485.19
2019-05-14T18:07:08.514Z,101496.88
2019-05-14T18:10:13.459Z,101490.69
2019-05-14T18:13:19.026Z,101489.12
2019-05-14T18:16:24.073Z,101492.31
2019-05-14T18:19:29.197Z,101492.69
2019-05-14T18:22:34.669Z,101489.03
2019-05-14T18:25:40.313Z,101497.30
2019-05-14T18:28:45.410Z,101496.33
2019-05-14T18:31:53.807Z,101496.47
2019-05-14T18:34:58.120Z,101498.88
2019-05-14T18:38:03.325Z,101506.13
2019-05-14T18:41:08.625Z,101496.50
2019-05-14T18:44:13.586Z,101496.74
2019-05-14T18:47:20.101Z,101499.21
2019-05-14T18:50:25.108Z,101498.63
2019-05-14T18:53:30.020Z,101502.73
2019-05-14T18:56:38.403Z,101503.09
2019-05-14T18:59:43.029Z,101499.83
2019-05-14T19:02:48.542Z,101499.62
2019-05-14T19:05:53.712Z,101501.23
2019-05-14T19:08:58.823Z,101503.84
2019-05-14T19:12:03.988Z,101499.72
2019-05-14T19:15:09.457Z,101509.67
2019-05-14T19:18:14.584Z,101506.65
2019-05-14T19:21:19.411Z,101509.41
2019-05-14T19:24:24.212Z,101506.16
2019-05-14T19:27:29.458Z,101509.13
2019-05-14T19:30:34.394Z,101507.13
2019-05-14T19:33:39.308Z,101519.22
2019-05-14T19:36:44.617Z,101521.70
2019-05-14T19:39:49.857Z,101517.55
2019-05-14T19:42:55.422Z,101519.95
2019-05-14T19:46:00.441Z,101524.25
2019-05-14T19:49:05.379Z,101526.51
2019-05-14T19:52:10.168Z,101524.70
2019-05-14T19:55:15.187Z,101526.23
2019-05-14T19:58:20.481Z,101533.59
2019-05-14T20:01:25.717Z,101529.31
2019-05-14T20:04:30.571Z,101532.03
2019-05-14T20:07:35.658Z,101521.53
2019-05-14T20:10:40.523Z,101530.12
2019-05-14T20:13:45.638Z,101538.98
2019-05-14T20:16:51.020Z,101528.91
2019-05-14T20:19:57.970Z,101533.74
2019-05-14T20:23:02.621Z,101525.27
2019-05-14T20:26:08.286Z,101518.08
2019-05-14T20:29:13.524Z,101524.52
2019-05-14T20:32:19.391Z,101519.47
2019-05-14T20:35:31.801Z,101522.42
2019-05-14T20:38:30.875Z,101519.95
2019-05-14T20:41:38.564Z,101516.55
2019-05-14T20:44:42.779Z,101512.16
2019-05-14T20:47:48.206Z,101512.49
2019-05-14T20:50:54.632Z,101514.95
2019-05-14T20:53:59.356Z,101510.86
2019-05-14T20:57:04.154Z,101520.17
2019-05-14T21:00:11.561Z,101524.20
2019-05-14T21:03:18.665Z,101528.64
2019-05-14T21:06:23.413Z,101528.35
2019-05-14T21:09:28.969Z,101521.30
2019-05-14T21:12:33.794Z,101518.98
2019-05-14T21:15:39.379Z,101528.43
2019-05-14T21:18:44.347Z,101520.80
2019-05-14T21:21:49.578Z,101528.95
2019-05-14T21:24:54.478Z,101522.92
2019-05-14T21:27:59.361Z,101526.77
2019-05-14T21:31:04.761Z,101521.50
2019-05-14T21:34:10.114Z,101525.94
2019-05-14T21:37:15.180Z,101529.77
2019-05-14T21:40:20.131Z,101530.64
2019-05-14T21:43:25.273Z,101519.45
2019-05-14T21:46:31.760Z,101524.20
2019-05-14T21:49:38.806Z,101524.63
2019-05-14T21:52:43.161Z,101527.69
2019-05-14T21:55:48.225Z,101518.89
2019-05-14T21:58:53.291Z,101528.16
2019-05-14T22:02:01.272Z,101525.52
2019-05-14T22:05:09.384Z,101528.41
2019-05-14T22:08:13.374Z,101522.89
2019-05-14T22:11:18.918Z,101525.06
2019-05-14T22:14:23.802Z,101528.20
2019-05-14T22:17:28.643Z,101527.39
2019-05-14T22:20:34.597Z,101523.71
2019-05-14T22:23:39.625Z,101522.95
2019-05-14T22:26:44.390Z,101520.47
2019-05-14T22:29:50.349Z,101519.52
2019-05-14T22:32:55.118Z,101523.62
2019-05-14T22:36:00.309Z,101521.11
2019-05-14T22:39:06.433Z,101509.56
2019-05-14T22:42:11.249Z,101515.81
2019-05-14T22:45:18.524Z,101508.08
2019-05-14T22:48:22.978Z,101505.30
2019-05-14T22:51:28.205Z,101499.22
2019-05-14T22:54:32.980Z,101492.09
2019-05-14T22:57:39.239Z,101489.78
2019-05-14T23:00:48.092Z,101489.22
2019-05-14T23:03:51.284Z,101485.31
2019-05-14T23:06:58.517Z,101487.06
2019-05-14T23:10:02.907Z,101496.55
2019-05-14T23:13:09.335Z,101498.27
2019-05-14T23:16:14.442Z,101495.63
2019-05-14T23:19:19.539Z,101490.74
2019-05-14T23:22:24.590Z,101494.26
2019-05-14T23:25:29.626Z,101492.45
2019-05-14T23:28:43.754Z,101491.99
2019-05-14T23:31:41.193Z,101490.17
2019-05-14T23:34:48.705Z,101484.39
2019-05-14T23:37:53.681Z,101491.48
2019-05-14T23:40:59.765Z,101479.78
2019-05-14T23:44:04.620Z,101494.64
2019-05-14T23:47:09.421Z,101483.35
2019-05-14T23:50:14.397Z,101479.22
2019-05-14T23:53:19.419Z,101478.61
2019-05-14T23:56:24.180Z,101473.38
2019-05-14T23:59:29.425Z,101479.66
